sensor_id;sensor_type;location;lat;lon;timestamp;temperature;humidity
17364;DHT22;8799;43.594;13.526;2023-06-14T00:00:00;24.70;98.50
17364;DHT22;8799;43.594;13.526;2023-06-14T00:02:29;24.70;98.60
17364;DHT22;8799;43.594;13.526;2023-06-14T00:04:59;24.70;98.80
17364;DHT22;8799;43.594;13.526;2023-06-14T00:07:34;24.70;98.80
17364;DHT22;8799;43.594;13.526;2023-06-14T00:10:03;24.70;98.80
17364;DHT22;8799;43.594;13.526;2023-06-14T00:12:30;24.70;98.90
17364;DHT22;8799;43.594;13.526;2023-06-14T00:14:58;24.70;98.90
17364;DHT22;8799;43.594;13.526;2023-06-14T00:17:27;24.70;98.90
17364;DHT22;8799;43.594;13.526;2023-06-14T00:19:57;24.70;98.90
17364;DHT22;8799;43.594;13.526;2023-06-14T00:22:26;24.70;98.80
17364;DHT22;8799;43.594;13.526;2023-06-14T00:24:54;24.80;98.80
17364;DHT22;8799;43.594;13.526;2023-06-14T00:27:22;24.80;98.80
17364;DHT22;8799;43.594;13.526;2023-06-14T00:29:50;24.80;98.80
17364;DHT22;8799;43.594;13.526;2023-06-14T00:32:18;24.70;98.80
17364;DHT22;8799;43.594;13.526;2023-06-14T00:34:50;24.80;98.80
17364;DHT22;8799;43.594;13.526;2023-06-14T00:37:18;24.80;99.00
17364;DHT22;8799;43.594;13.526;2023-06-14T00:39:47;24.80;99.10
17364;DHT22;8799;43.594;13.526;2023-06-14T00:42:24;24.80;99.10
17364;DHT22;8799;43.594;13.526;2023-06-14T00:44:52;24.80;99.10
17364;DHT22;8799;43.594;13.526;2023-06-14T00:47:20;24.80;99.10
17364;DHT22;8799;43.594;13.526;2023-06-14T00:49:48;24.80;99.00
17364;DHT22;8799;43.594;13.526;2023-06-14T00:52:16;24.80;99.10
17364;DHT22;8799;43.594;13.526;2023-06-14T00:54:44;24.80;99.10
17364;DHT22;8799;43.594;13.526;2023-06-14T00:57:13;24.80;99.00
17364;DHT22;8799;43.594;13.526;2023-06-14T00:59:44;24.80;99.10
17364;DHT22;8799;43.594;13.526;2023-06-14T01:02:13;24.80;99.00
17364;DHT22;8799;43.594;13.526;2023-06-14T01:04:43;24.80;99.00
17364;DHT22;8799;43.594;13.526;2023-06-14T01:07:20;24.80;99.00
17364;DHT22;8799;43.594;13.526;2023-06-14T01:10:03;24.80;99.00
17364;DHT22;8799;43.594;13.526;2023-06-14T01:12:39;24.80;99.00
17364;DHT22;8799;43.594;13.526;2023-06-14T01:15:11;24.80;99.10
17364;DHT22;8799;43.594;13.526;2023-06-14T01:17:41;24.80;99.00
17364;DHT22;8799;43.594;13.526;2023-06-14T01:20:12;24.80;99.00
17364;DHT22;8799;43.594;13.526;2023-06-14T01:22:50;24.80;99.00
17364;DHT22;8799;43.594;13.526;2023-06-14T01:25:38;24.80;99.10
17364;DHT22;8799;43.594;13.526;2023-06-14T01:28:07;24.80;99.10
17364;DHT22;8799;43.594;13.526;2023-06-14T01:30:37;24.80;99.10
17364;DHT22;8799;43.594;13.526;2023-06-14T01:33:05;24.80;99.20
17364;DHT22;8799;43.594;13.526;2023-06-14T01:35:34;24.80;99.10
17364;DHT22;8799;43.594;13.526;2023-06-14T01:38:04;24.80;99.10
17364;DHT22;8799;43.594;13.526;2023-06-14T01:40:34;24.80;99.10
17364;DHT22;8799;43.594;13.526;2023-06-14T01:43:03;24.80;99.20
17364;DHT22;8799;43.594;13.526;2023-06-14T01:45:31;24.80;99.20
17364;DHT22;8799;43.594;13.526;2023-06-14T01:48:00;24.80;99.20
17364;DHT22;8799;43.594;13.526;2023-06-14T01:50:29;24.70;99.20
17364;DHT22;8799;43.594;13.526;2023-06-14T01:52:57;24.80;99.20
17364;DHT22;8799;43.594;13.526;2023-06-14T01:55:27;24.80;99.20
17364;DHT22;8799;43.594;13.526;2023-06-14T01:57:54;24.80;99.20
17364;DHT22;8799;43.594;13.526;2023-06-14T02:00:22;24.80;99.20
17364;DHT22;8799;43.594;13.526;2023-06-14T02:02:50;24.80;99.20
17364;DHT22;8799;43.594;13.526;2023-06-14T02:05:18;24.80;99.20
17364;DHT22;8799;43.594;13.526;2023-06-14T02:07:45;24.80;99.20
17364;DHT22;8799;43.594;13.526;2023-06-14T02:10:13;24.80;99.20
17364;DHT22;8799;43.594;13.526;2023-06-14T02:12:43;24.80;99.20
17364;DHT22;8799;43.594;13.526;2023-06-14T02:15:11;24.80;99.20
17364;DHT22;8799;43.594;13.526;2023-06-14T02:17:43;24.80;99.20
17364;DHT22;8799;43.594;13.526;2023-06-14T02:20:13;23.30;98.50
17364;DHT22;8799;43.594;13.526;2023-06-14T02:22:41;24.80;99.40
17364;DHT22;8799;43.594;13.526;2023-06-14T02:25:09;24.80;99.40
17364;DHT22;8799;43.594;13.526;2023-06-14T02:27:36;24.80;99.40
17364;DHT22;8799;43.594;13.526;2023-06-14T02:30:08;24.80;99.40
17364;DHT22;8799;43.594;13.526;2023-06-14T02:32:36;24.80;99.30
17364;DHT22;8799;43.594;13.526;2023-06-14T02:35:04;24.80;99.30
17364;DHT22;8799;43.594;13.526;2023-06-14T02:37:32;24.80;99.20
17364;DHT22;8799;43.594;13.526;2023-06-14T02:40:01;24.80;99.20
17364;DHT22;8799;43.594;13.526;2023-06-14T02:42:29;24.80;99.10
17364;DHT22;8799;43.594;13.526;2023-06-14T02:44:57;24.80;99.10
17364;DHT22;8799;43.594;13.526;2023-06-14T02:47:26;24.80;99.20
17364;DHT22;8799;43.594;13.526;2023-06-14T02:49:54;24.80;99.20
17364;DHT22;8799;43.594;13.526;2023-06-14T02:52:22;24.80;99.30
17364;DHT22;8799;43.594;13.526;2023-06-14T02:54:50;24.80;99.40
17364;DHT22;8799;43.594;13.526;2023-06-14T02:57:18;24.80;99.50
17364;DHT22;8799;43.594;13.526;2023-06-14T02:59:46;24.80;99.60
17364;DHT22;8799;43.594;13.526;2023-06-14T03:02:14;24.80;99.60
17364;DHT22;8799;43.594;13.526;2023-06-14T03:04:44;24.80;99.70
17364;DHT22;8799;43.594;13.526;2023-06-14T03:07:12;24.80;99.70
17364;DHT22;8799;43.594;13.526;2023-06-14T03:09:45;24.80;99.80
17364;DHT22;8799;43.594;13.526;2023-06-14T03:12:14;24.80;99.90
17364;DHT22;8799;43.594;13.526;2023-06-14T03:14:41;24.80;99.90
17364;DHT22;8799;43.594;13.526;2023-06-14T03:17:12;24.80;99.90
17364;DHT22;8799;43.594;13.526;2023-06-14T03:19:41;24.80;99.90
17364;DHT22;8799;43.594;13.526;2023-06-14T03:22:10;24.80;99.90
17364;DHT22;8799;43.594;13.526;2023-06-14T03:24:38;24.80;99.90
17364;DHT22;8799;43.594;13.526;2023-06-14T03:27:07;24.80;99.90
17364;DHT22;8799;43.594;13.526;2023-06-14T03:29:35;24.80;99.90
17364;DHT22;8799;43.594;13.526;2023-06-14T03:32:03;24.80;99.90
17364;DHT22;8799;43.594;13.526;2023-06-14T03:34:31;24.80;99.90
17364;DHT22;8799;43.594;13.526;2023-06-14T03:36:59;24.80;99.90
17364;DHT22;8799;43.594;13.526;2023-06-14T03:39:29;24.80;99.90
17364;DHT22;8799;43.594;13.526;2023-06-14T03:41:56;24.80;99.90
17364;DHT22;8799;43.594;13.526;2023-06-14T03:44:26;24.80;99.90
17364;DHT22;8799;43.594;13.526;2023-06-14T03:46:55;24.80;99.90
17364;DHT22;8799;43.594;13.526;2023-06-14T03:49:22;24.80;99.90
17364;DHT22;8799;43.594;13.526;2023-06-14T03:51:51;24.80;99.90
17364;DHT22;8799;43.594;13.526;2023-06-14T03:54:23;24.80;99.90
17364;DHT22;8799;43.594;13.526;2023-06-14T03:56:52;24.80;99.90
17364;DHT22;8799;43.594;13.526;2023-06-14T03:59:19;24.80;99.90
17364;DHT22;8799;43.594;13.526;2023-06-14T04:01:51;24.80;99.90
17364;DHT22;8799;43.594;13.526;2023-06-14T04:04:19;24.80;99.90
17364;DHT22;8799;43.594;13.526;2023-06-14T04:06:47;24.80;99.90
17364;DHT22;8799;43.594;13.526;2023-06-14T04:09:15;24.80;99.90
17364;DHT22;8799;43.594;13.526;2023-06-14T04:11:44;24.80;99.90
17364;DHT22;8799;43.594;13.526;2023-06-14T04:14:14;24.80;99.90
17364;DHT22;8799;43.594;13.526;2023-06-14T04:16:43;24.80;99.90
17364;DHT22;8799;43.594;13.526;2023-06-14T04:19:10;24.80;99.90
17364;DHT22;8799;43.594;13.526;2023-06-14T04:21:38;24.80;99.90
17364;DHT22;8799;43.594;13.526;2023-06-14T04:24:06;24.80;99.90
17364;DHT22;8799;43.594;13.526;2023-06-14T04:26:38;24.80;99.90
17364;DHT22;8799;43.594;13.526;2023-06-14T04:29:06;24.80;99.90
17364;DHT22;8799;43.594;13.526;2023-06-14T04:31:36;24.80;99.90
17364;DHT22;8799;43.594;13.526;2023-06-14T04:34:04;24.80;99.90
17364;DHT22;8799;43.594;13.526;2023-06-14T04:36:33;24.80;99.90
17364;DHT22;8799;43.594;13.526;2023-06-14T04:39:02;24.80;99.90
17364;DHT22;8799;43.594;13.526;2023-06-14T04:41:30;24.80;99.90
17364;DHT22;8799;43.594;13.526;2023-06-14T04:44:00;24.80;99.90
17364;DHT22;8799;43.594;13.526;2023-06-14T04:46:28;24.70;99.90
17364;DHT22;8799;43.594;13.526;2023-06-14T04:48:59;24.80;99.90
17364;DHT22;8799;43.594;13.526;2023-06-14T04:51:28;24.80;99.90
17364;DHT22;8799;43.594;13.526;2023-06-14T04:53:56;24.70;99.90
17364;DHT22;8799;43.594;13.526;2023-06-14T04:56:24;24.70;99.90
17364;DHT22;8799;43.594;13.526;2023-06-14T04:58:52;24.70;99.90
17364;DHT22;8799;43.594;13.526;2023-06-14T05:01:20;24.70;99.90
17364;DHT22;8799;43.594;13.526;2023-06-14T05:03:48;24.70;99.90
17364;DHT22;8799;43.594;13.526;2023-06-14T05:06:17;24.70;99.90
17364;DHT22;8799;43.594;13.526;2023-06-14T05:08:45;24.70;99.90
17364;DHT22;8799;43.594;13.526;2023-06-14T05:11:14;24.80;99.10
17364;DHT22;8799;43.594;13.526;2023-06-14T05:13:42;24.70;99.10
17364;DHT22;8799;43.594;13.526;2023-06-14T05:16:10;24.60;99.10
17364;DHT22;8799;43.594;13.526;2023-06-14T05:18:38;24.50;99.10
17364;DHT22;8799;43.594;13.526;2023-06-14T05:21:05;24.50;98.90
17364;DHT22;8799;43.594;13.526;2023-06-14T05:23:41;24.40;98.10
17364;DHT22;8799;43.594;13.526;2023-06-14T05:26:10;24.30;98.50
17364;DHT22;8799;43.594;13.526;2023-06-14T05:28:38;24.30;98.90
17364;DHT22;8799;43.594;13.526;2023-06-14T05:31:05;24.20;97.60
17364;DHT22;8799;43.594;13.526;2023-06-14T05:33:33;24.00;96.80
17364;DHT22;8799;43.594;13.526;2023-06-14T05:36:02;23.90;97.10
17364;DHT22;8799;43.594;13.526;2023-06-14T05:38:30;23.80;97.60
17364;DHT22;8799;43.594;13.526;2023-06-14T05:40:59;23.80;98.60
17364;DHT22;8799;43.594;13.526;2023-06-14T05:43:27;23.70;99.60
17364;DHT22;8799;43.594;13.526;2023-06-14T05:45:55;23.70;99.90
17364;DHT22;8799;43.594;13.526;2023-06-14T05:48:23;23.70;99.90
17364;DHT22;8799;43.594;13.526;2023-06-14T05:50:51;23.70;99.90
17364;DHT22;8799;43.594;13.526;2023-06-14T05:53:19;23.80;99.90
17364;DHT22;8799;43.594;13.526;2023-06-14T05:55:49;23.80;99.90
17364;DHT22;8799;43.594;13.526;2023-06-14T05:58:19;23.90;99.90
17364;DHT22;8799;43.594;13.526;2023-06-14T06:00:47;23.90;99.90
17364;DHT22;8799;43.594;13.526;2023-06-14T06:03:15;23.90;99.90
17364;DHT22;8799;43.594;13.526;2023-06-14T06:05:42;23.90;99.90
17364;DHT22;8799;43.594;13.526;2023-06-14T06:08:11;23.90;99.90
17364;DHT22;8799;43.594;13.526;2023-06-14T06:10:39;24.00;99.90
17364;DHT22;8799;43.594;13.526;2023-06-14T06:13:07;24.00;99.90
17364;DHT22;8799;43.594;13.526;2023-06-14T06:15:36;24.00;99.90
17364;DHT22;8799;43.594;13.526;2023-06-14T06:18:04;24.00;99.90
17364;DHT22;8799;43.594;13.526;2023-06-14T06:20:33;24.10;99.90
17364;DHT22;8799;43.594;13.526;2023-06-14T06:23:02;24.10;99.90
17364;DHT22;8799;43.594;13.526;2023-06-14T06:25:30;24.10;99.90
17364;DHT22;8799;43.594;13.526;2023-06-14T06:27:58;24.10;99.90
17364;DHT22;8799;43.594;13.526;2023-06-14T06:30:25;24.10;99.90
17364;DHT22;8799;43.594;13.526;2023-06-14T06:32:55;24.10;99.90
17364;DHT22;8799;43.594;13.526;2023-06-14T06:35:22;24.10;99.90
17364;DHT22;8799;43.594;13.526;2023-06-14T06:37:50;24.10;99.90
17364;DHT22;8799;43.594;13.526;2023-06-14T06:40:18;24.10;99.90
17364;DHT22;8799;43.594;13.526;2023-06-14T06:42:46;24.10;99.90
17364;DHT22;8799;43.594;13.526;2023-06-14T06:45:14;24.20;99.90
17364;DHT22;8799;43.594;13.526;2023-06-14T06:47:42;24.20;99.90
17364;DHT22;8799;43.594;13.526;2023-06-14T06:50:11;24.20;99.90
17364;DHT22;8799;43.594;13.526;2023-06-14T06:52:39;24.20;99.90
17364;DHT22;8799;43.594;13.526;2023-06-14T06:55:11;24.20;99.90
17364;DHT22;8799;43.594;13.526;2023-06-14T06:57:39;24.20;99.90
17364;DHT22;8799;43.594;13.526;2023-06-14T07:00:08;24.20;99.90
17364;DHT22;8799;43.594;13.526;2023-06-14T07:02:36;24.20;99.90
17364;DHT22;8799;43.594;13.526;2023-06-14T07:05:04;24.20;99.90
17364;DHT22;8799;43.594;13.526;2023-06-14T07:07:33;24.20;99.90
17364;DHT22;8799;43.594;13.526;2023-06-14T07:10:02;24.20;99.90
17364;DHT22;8799;43.594;13.526;2023-06-14T07:12:30;24.20;99.90
17364;DHT22;8799;43.594;13.526;2023-06-14T07:14:59;24.20;99.90
17364;DHT22;8799;43.594;13.526;2023-06-14T07:17:27;24.20;99.90
17364;DHT22;8799;43.594;13.526;2023-06-14T07:19:54;24.20;99.90
17364;DHT22;8799;43.594;13.526;2023-06-14T07:22:22;24.20;99.90
17364;DHT22;8799;43.594;13.526;2023-06-14T07:24:52;24.20;99.90
17364;DHT22;8799;43.594;13.526;2023-06-14T07:27:19;24.20;99.90
17364;DHT22;8799;43.594;13.526;2023-06-14T07:29:47;24.20;99.90
17364;DHT22;8799;43.594;13.526;2023-06-14T07:32:15;24.20;99.90
17364;DHT22;8799;43.594;13.526;2023-06-14T07:34:43;24.10;99.90
17364;DHT22;8799;43.594;13.526;2023-06-14T07:37:11;24.20;99.90
17364;DHT22;8799;43.594;13.526;2023-06-14T07:39:39;24.20;99.90
17364;DHT22;8799;43.594;13.526;2023-06-14T07:42:10;24.20;99.90
17364;DHT22;8799;43.594;13.526;2023-06-14T07:44:38;24.20;99.90
17364;DHT22;8799;43.594;13.526;2023-06-14T07:47:06;24.20;99.90
17364;DHT22;8799;43.594;13.526;2023-06-14T07:49:35;24.20;99.90
17364;DHT22;8799;43.594;13.526;2023-06-14T07:52:03;24.20;99.90
17364;DHT22;8799;43.594;13.526;2023-06-14T07:54:31;24.20;99.90
17364;DHT22;8799;43.594;13.526;2023-06-14T07:56:59;24.20;99.90
17364;DHT22;8799;43.594;13.526;2023-06-14T07:59:29;24.20;99.90
17364;DHT22;8799;43.594;13.526;2023-06-14T08:01:57;24.20;99.90
17364;DHT22;8799;43.594;13.526;2023-06-14T08:04:25;24.20;99.90
17364;DHT22;8799;43.594;13.526;2023-06-14T08:06:52;24.20;99.90
17364;DHT22;8799;43.594;13.526;2023-06-14T08:09:20;24.20;99.90
17364;DHT22;8799;43.594;13.526;2023-06-14T08:11:48;24.20;99.90
17364;DHT22;8799;43.594;13.526;2023-06-14T08:14:16;24.20;99.90
17364;DHT22;8799;43.594;13.526;2023-06-14T08:16:46;24.20;99.90
17364;DHT22;8799;43.594;13.526;2023-06-14T08:19:15;24.20;99.90
17364;DHT22;8799;43.594;13.526;2023-06-14T08:21:43;24.20;99.90
17364;DHT22;8799;43.594;13.526;2023-06-14T08:24:11;24.20;99.90
17364;DHT22;8799;43.594;13.526;2023-06-14T08:26:40;24.20;99.90
17364;DHT22;8799;43.594;13.526;2023-06-14T08:29:08;24.10;99.90
17364;DHT22;8799;43.594;13.526;2023-06-14T08:31:36;24.10;99.90
17364;DHT22;8799;43.594;13.526;2023-06-14T08:34:05;24.10;99.90
17364;DHT22;8799;43.594;13.526;2023-06-14T08:36:35;24.10;99.90
17364;DHT22;8799;43.594;13.526;2023-06-14T08:39:03;24.10;99.90
17364;DHT22;8799;43.594;13.526;2023-06-14T08:41:31;24.10;99.90
17364;DHT22;8799;43.594;13.526;2023-06-14T08:44:00;24.10;99.90
17364;DHT22;8799;43.594;13.526;2023-06-14T08:46:32;24.10;99.90
17364;DHT22;8799;43.594;13.526;2023-06-14T08:49:01;24.10;99.90
17364;DHT22;8799;43.594;13.526;2023-06-14T08:51:31;24.10;99.90
17364;DHT22;8799;43.594;13.526;2023-06-14T08:54:00;24.10;99.90
17364;DHT22;8799;43.594;13.526;2023-06-14T08:56:30;24.10;99.90
17364;DHT22;8799;43.594;13.526;2023-06-14T08:58:58;24.10;99.90
17364;DHT22;8799;43.594;13.526;2023-06-14T09:01:32;24.10;99.90
17364;DHT22;8799;43.594;13.526;2023-06-14T09:04:00;24.10;99.90
17364;DHT22;8799;43.594;13.526;2023-06-14T09:06:34;24.10;99.90
17364;DHT22;8799;43.594;13.526;2023-06-14T09:09:02;24.10;99.90
17364;DHT22;8799;43.594;13.526;2023-06-14T09:11:31;24.10;99.90
17364;DHT22;8799;43.594;13.526;2023-06-14T09:14:00;24.10;99.90
17364;DHT22;8799;43.594;13.526;2023-06-14T09:16:32;24.10;99.90
17364;DHT22;8799;43.594;13.526;2023-06-14T09:19:00;24.10;99.90
17364;DHT22;8799;43.594;13.526;2023-06-14T09:21:28;24.10;99.90
17364;DHT22;8799;43.594;13.526;2023-06-14T09:24:03;24.10;99.90
17364;DHT22;8799;43.594;13.526;2023-06-14T09:26:32;24.10;99.90
17364;DHT22;8799;43.594;13.526;2023-06-14T09:28:59;24.00;99.90
17364;DHT22;8799;43.594;13.526;2023-06-14T09:31:27;24.10;99.90
17364;DHT22;8799;43.594;13.526;2023-06-14T09:33:57;24.10;99.90
17364;DHT22;8799;43.594;13.526;2023-06-14T09:36:25;24.10;99.90
17364;DHT22;8799;43.594;13.526;2023-06-14T09:38:53;24.10;99.90
17364;DHT22;8799;43.594;13.526;2023-06-14T09:41:30;24.10;99.90
17364;DHT22;8799;43.594;13.526;2023-06-14T09:43:59;24.10;99.90
17364;DHT22;8799;43.594;13.526;2023-06-14T09:46:29;24.10;99.90
17364;DHT22;8799;43.594;13.526;2023-06-14T09:48:58;24.10;99.90
17364;DHT22;8799;43.594;13.526;2023-06-14T09:51:26;24.10;99.90
17364;DHT22;8799;43.594;13.526;2023-06-14T09:53:58;24.10;99.90
17364;DHT22;8799;43.594;13.526;2023-06-14T09:56:29;24.10;99.90
17364;DHT22;8799;43.594;13.526;2023-06-14T09:58:58;24.10;99.90
17364;DHT22;8799;43.594;13.526;2023-06-14T10:01:29;24.10;99.90
17364;DHT22;8799;43.594;13.526;2023-06-14T10:04:02;24.00;99.90
17364;DHT22;8799;43.594;13.526;2023-06-14T10:06:31;24.10;99.90
17364;DHT22;8799;43.594;13.526;2023-06-14T10:09:00;24.00;99.90
17364;DHT22;8799;43.594;13.526;2023-06-14T10:11:29;24.00;99.90
17364;DHT22;8799;43.594;13.526;2023-06-14T10:13:59;24.00;99.90
17364;DHT22;8799;43.594;13.526;2023-06-14T10:16:31;24.00;99.90
17364;DHT22;8799;43.594;13.526;2023-06-14T10:19:04;24.00;99.90
17364;DHT22;8799;43.594;13.526;2023-06-14T10:21:41;24.00;99.90
17364;DHT22;8799;43.594;13.526;2023-06-14T10:24:13;24.00;99.90
17364;DHT22;8799;43.594;13.526;2023-06-14T10:26:53;24.00;99.90
17364;DHT22;8799;43.594;13.526;2023-06-14T10:29:21;24.10;99.90
17364;DHT22;8799;43.594;13.526;2023-06-14T10:31:50;24.00;99.90
17364;DHT22;8799;43.594;13.526;2023-06-14T10:34:22;24.00;99.90
17364;DHT22;8799;43.594;13.526;2023-06-14T10:37:03;24.00;99.90
17364;DHT22;8799;43.594;13.526;2023-06-14T10:39:33;24.00;99.90
17364;DHT22;8799;43.594;13.526;2023-06-14T10:42:06;23.90;99.90
17364;DHT22;8799;43.594;13.526;2023-06-14T10:44:45;24.10;99.90
17364;DHT22;8799;43.594;13.526;2023-06-14T10:47:24;24.10;99.90
17364;DHT22;8799;43.594;13.526;2023-06-14T10:49:53;24.00;99.90
17364;DHT22;8799;43.594;13.526;2023-06-14T10:52:24;24.10;99.90
17364;DHT22;8799;43.594;13.526;2023-06-14T10:55:09;24.10;99.90
17364;DHT22;8799;43.594;13.526;2023-06-14T10:57:40;24.10;99.90
17364;DHT22;8799;43.594;13.526;2023-06-14T11:00:10;24.10;99.90
17364;DHT22;8799;43.594;13.526;2023-06-14T11:03:08;24.00;99.90
17364;DHT22;8799;43.594;13.526;2023-06-14T11:05:50;24.00;99.90
17364;DHT22;8799;43.594;13.526;2023-06-14T11:08:53;24.00;99.90
17364;DHT22;8799;43.594;13.526;2023-06-14T11:11:32;24.00;99.90
17364;DHT22;8799;43.594;13.526;2023-06-14T11:14:02;24.00;99.90
17364;DHT22;8799;43.594;13.526;2023-06-14T11:16:30;24.10;99.90
17364;DHT22;8799;43.594;13.526;2023-06-14T11:19:00;24.00;99.90
17364;DHT22;8799;43.594;13.526;2023-06-14T11:21:28;24.10;99.90
17364;DHT22;8799;43.594;13.526;2023-06-14T11:23:59;24.00;99.90
17364;DHT22;8799;43.594;13.526;2023-06-14T11:26:29;24.00;99.90
17364;DHT22;8799;43.594;13.526;2023-06-14T11:28:57;24.00;99.90
17364;DHT22;8799;43.594;13.526;2023-06-14T11:31:28;24.00;99.90
17364;DHT22;8799;43.594;13.526;2023-06-14T11:33:56;24.00;99.90
17364;DHT22;8799;43.594;13.526;2023-06-14T11:36:27;24.00;99.90
17364;DHT22;8799;43.594;13.526;2023-06-14T11:39:00;24.00;99.90
17364;DHT22;8799;43.594;13.526;2023-06-14T11:41:38;24.00;99.90
17364;DHT22;8799;43.594;13.526;2023-06-14T11:44:07;24.00;99.90
17364;DHT22;8799;43.594;13.526;2023-06-14T11:46:36;24.00;99.90
17364;DHT22;8799;43.594;13.526;2023-06-14T11:49:04;24.00;99.90
17364;DHT22;8799;43.594;13.526;2023-06-14T11:51:33;24.00;99.90
17364;DHT22;8799;43.594;13.526;2023-06-14T11:54:01;24.00;99.90
17364;DHT22;8799;43.594;13.526;2023-06-14T11:56:30;24.00;99.90
17364;DHT22;8799;43.594;13.526;2023-06-14T11:58:59;24.00;99.90
17364;DHT22;8799;43.594;13.526;2023-06-14T12:01:27;24.00;99.90
17364;DHT22;8799;43.594;13.526;2023-06-14T12:03:59;24.00;99.90
17364;DHT22;8799;43.594;13.526;2023-06-14T12:06:28;24.00;99.90
17364;DHT22;8799;43.594;13.526;2023-06-14T12:08:58;24.00;99.90
17364;DHT22;8799;43.594;13.526;2023-06-14T12:11:32;24.00;99.90
17364;DHT22;8799;43.594;13.526;2023-06-14T12:14:02;23.90;99.90
17364;DHT22;8799;43.594;13.526;2023-06-14T12:16:31;23.90;99.90
17364;DHT22;8799;43.594;13.526;2023-06-14T12:19:08;23.90;99.90
17364;DHT22;8799;43.594;13.526;2023-06-14T12:21:38;24.00;99.90
17364;DHT22;8799;43.594;13.526;2023-06-14T12:24:07;23.90;99.90
17364;DHT22;8799;43.594;13.526;2023-06-14T12:26:38;23.90;99.90
17364;DHT22;8799;43.594;13.526;2023-06-14T12:29:07;24.00;99.90
17364;DHT22;8799;43.594;13.526;2023-06-14T12:31:34;23.90;99.90
17364;DHT22;8799;43.594;13.526;2023-06-14T12:34:04;23.90;99.90
17364;DHT22;8799;43.594;13.526;2023-06-14T12:36:32;23.90;99.90
17364;DHT22;8799;43.594;13.526;2023-06-14T12:39:00;23.90;99.90
17364;DHT22;8799;43.594;13.526;2023-06-14T12:41:27;23.90;99.90
17364;DHT22;8799;43.594;13.526;2023-06-14T12:43:56;23.90;99.90
17364;DHT22;8799;43.594;13.526;2023-06-14T12:46:25;23.90;99.90
17364;DHT22;8799;43.594;13.526;2023-06-14T12:48:57;23.90;99.90
17364;DHT22;8799;43.594;13.526;2023-06-14T12:51:27;23.90;99.90
17364;DHT22;8799;43.594;13.526;2023-06-14T12:53:55;23.90;99.90
17364;DHT22;8799;43.594;13.526;2023-06-14T12:56:22;23.90;99.90
17364;DHT22;8799;43.594;13.526;2023-06-14T12:58:50;23.90;99.90
17364;DHT22;8799;43.594;13.526;2023-06-14T13:01:18;23.90;99.90
17364;DHT22;8799;43.594;13.526;2023-06-14T13:03:46;23.90;99.90
17364;DHT22;8799;43.594;13.526;2023-06-14T13:06:15;23.90;99.90
17364;DHT22;8799;43.594;13.526;2023-06-14T13:08:44;23.90;99.90
17364;DHT22;8799;43.594;13.526;2023-06-14T13:11:13;23.90;99.90
17364;DHT22;8799;43.594;13.526;2023-06-14T13:13:40;23.90;99.90
17364;DHT22;8799;43.594;13.526;2023-06-14T13:16:08;23.90;99.90
17364;DHT22;8799;43.594;13.526;2023-06-14T13:18:36;23.90;99.90
17364;DHT22;8799;43.594;13.526;2023-06-14T13:21:04;23.90;99.90
17364;DHT22;8799;43.594;13.526;2023-06-14T13:23:33;23.90;99.90
17364;DHT22;8799;43.594;13.526;2023-06-14T13:26:03;23.90;99.90
17364;DHT22;8799;43.594;13.526;2023-06-14T13:28:30;23.90;99.90
17364;DHT22;8799;43.594;13.526;2023-06-14T13:30:58;23.90;99.90
17364;DHT22;8799;43.594;13.526;2023-06-14T13:33:26;23.90;99.90
17364;DHT22;8799;43.594;13.526;2023-06-14T13:35:55;23.90;99.90
17364;DHT22;8799;43.594;13.526;2023-06-14T13:38:23;23.90;99.90
17364;DHT22;8799;43.594;13.526;2023-06-14T13:40:51;23.90;99.90
17364;DHT22;8799;43.594;13.526;2023-06-14T13:43:21;23.90;99.90
17364;DHT22;8799;43.594;13.526;2023-06-14T13:45:49;23.90;99.90
17364;DHT22;8799;43.594;13.526;2023-06-14T13:48:16;23.90;99.90
17364;DHT22;8799;43.594;13.526;2023-06-14T13:50:45;23.90;99.90
17364;DHT22;8799;43.594;13.526;2023-06-14T13:53:13;23.90;99.90
17364;DHT22;8799;43.594;13.526;2023-06-14T13:55:43;23.90;99.90
17364;DHT22;8799;43.594;13.526;2023-06-14T13:58:10;23.90;99.90
17364;DHT22;8799;43.594;13.526;2023-06-14T14:00:39;23.90;99.90
17364;DHT22;8799;43.594;13.526;2023-06-14T14:03:07;23.90;99.90
17364;DHT22;8799;43.594;13.526;2023-06-14T14:05:35;23.90;99.90
17364;DHT22;8799;43.594;13.526;2023-06-14T14:08:03;23.90;99.90
17364;DHT22;8799;43.594;13.526;2023-06-14T14:10:35;23.90;99.90
17364;DHT22;8799;43.594;13.526;2023-06-14T14:13:03;23.90;99.90
17364;DHT22;8799;43.594;13.526;2023-06-14T14:15:31;23.90;99.90
17364;DHT22;8799;43.594;13.526;2023-06-14T14:18:02;23.90;99.90
17364;DHT22;8799;43.594;13.526;2023-06-14T14:20:30;23.90;99.90
17364;DHT22;8799;43.594;13.526;2023-06-14T14:22:58;23.90;99.90
17364;DHT22;8799;43.594;13.526;2023-06-14T14:25:26;23.90;99.90
17364;DHT22;8799;43.594;13.526;2023-06-14T14:27:53;23.90;99.90
17364;DHT22;8799;43.594;13.526;2023-06-14T14:30:21;23.90;99.90
17364;DHT22;8799;43.594;13.526;2023-06-14T14:32:50;23.90;99.90
17364;DHT22;8799;43.594;13.526;2023-06-14T14:35:20;23.90;99.90
17364;DHT22;8799;43.594;13.526;2023-06-14T14:37:48;23.90;99.90
17364;DHT22;8799;43.594;13.526;2023-06-14T14:40:16;23.90;99.90
17364;DHT22;8799;43.594;13.526;2023-06-14T14:42:43;23.90;99.90
17364;DHT22;8799;43.594;13.526;2023-06-14T14:45:11;23.90;99.90
17364;DHT22;8799;43.594;13.526;2023-06-14T14:47:39;23.90;99.90
17364;DHT22;8799;43.594;13.526;2023-06-14T14:50:08;23.90;99.90
17364;DHT22;8799;43.594;13.526;2023-06-14T14:52:38;23.90;99.90
17364;DHT22;8799;43.594;13.526;2023-06-14T14:55:07;23.90;99.90
17364;DHT22;8799;43.594;13.526;2023-06-14T14:57:35;23.90;99.90
17364;DHT22;8799;43.594;13.526;2023-06-14T15:00:05;23.90;99.90
17364;DHT22;8799;43.594;13.526;2023-06-14T15:02:33;23.90;99.90
17364;DHT22;8799;43.594;13.526;2023-06-14T15:05:01;23.80;99.90
17364;DHT22;8799;43.594;13.526;2023-06-14T15:07:30;23.90;99.90
17364;DHT22;8799;43.594;13.526;2023-06-14T15:10:00;23.90;99.90
17364;DHT22;8799;43.594;13.526;2023-06-14T15:12:28;23.90;99.90
17364;DHT22;8799;43.594;13.526;2023-06-14T15:14:56;23.80;99.90
17364;DHT22;8799;43.594;13.526;2023-06-14T15:17:24;23.90;99.90
17364;DHT22;8799;43.594;13.526;2023-06-14T15:19:52;23.90;99.90
17364;DHT22;8799;43.594;13.526;2023-06-14T15:22:20;23.90;99.90
17364;DHT22;8799;43.594;13.526;2023-06-14T15:24:48;23.90;99.90
17364;DHT22;8799;43.594;13.526;2023-06-14T15:27:18;23.90;99.90
17364;DHT22;8799;43.594;13.526;2023-06-14T15:29:45;23.80;99.90
17364;DHT22;8799;43.594;13.526;2023-06-14T15:32:14;23.90;99.90
17364;DHT22;8799;43.594;13.526;2023-06-14T15:34:42;23.80;99.90
17364;DHT22;8799;43.594;13.526;2023-06-14T15:37:10;23.80;99.90
17364;DHT22;8799;43.594;13.526;2023-06-14T15:39:38;23.90;99.90
17364;DHT22;8799;43.594;13.526;2023-06-14T15:42:07;23.90;99.90